KSLG

Smith Field Airport

Siloam Springs, Arkansas, USA
METAR KSLG 110256Z AUTO 14005KT 10SM CLR 00/M06 A3032 RMK AO2 SLP277 T00001061 58002 FZRANO
Observed Flight Rules
Dec-11 @ 02:56 UTC (13 minutes ago) Visual Flight Rules
Wind Visibility Clouds
140° at 5 knots 10 miles
  • Clear skies
Temperatures Readings
Current 0°C / 32°F
Dewpoint -6°C / 21°F
Humidity 64%
Altimeter 30.32" Hg
Pressure 1027.7 hPa
Elevation 300
METAR KSLG 110256Z AUTO 14005KT 10SM CLR 00/M06 A3032 RMK AO2 SLP277 T00001061 58002 FZRANO
Observed Flight Rules
Dec-11 @ 02:56 UTC
(13 minutes ago)
VFR
Wind Visibility
140° at 5 knots 10 miles
Clouds
  • Clear skies
Temperature Dewpoint
0°C / 32°F -6°C / 21°F
Humidity Altimeter Pressure
64% 30.32" Hg 1027.7 hPa